Time;durP1;ratioP1;P1;durP2;ratioP2;P2;SDS_P1;SDS_P2;PMS_P1;PMS_P2;Temp;Humidity;BMP_temperature;BMP_pressure;BME280_temperature;BME280_humidity;BME280_pressure;Samples;Min_cycle;Max_cycle;Signal;HPM_P1;HPM_P2
2021/12/19 00:00:31;;;;;;;4.85;3.45;;;;;;;0.57;100.00;99099.16;1818804;79;21024;-63
2021/12/19 00:15:18;;;;;;;5.28;3.70;;;;;;;0.58;100.00;99069.45;1801491;79;23006;-65
2021/12/19 00:17:45;;;;;;;5.75;3.83;;;;;;;0.60;100.00;99055.85;1754964;81;21109;-64
2021/12/19 00:20:12;;;;;;;;;;;;;;;0.64;100.00;99055.16;1722332;83;21448;-65
2021/12/19 00:22:38;;;;;;;4.37;3.47;;;;;;;0.69;100.00;99062.02;1690911;84;20108;-65
2021/12/19 00:25:07;;;;;;;4.47;3.55;;;;;;;0.64;100.00;99057.05;1712306;84;21087;-65
2021/12/19 00:27:34;;;;;;;5.20;3.65;;;;;;;0.59;100.00;99044.83;1712173;84;21121;-65
2021/12/19 00:30:01;;;;;;;4.85;3.77;;;;;;;0.58;100.00;99044.52;1712288;84;21090;-64
2021/12/19 00:32:27;;;;;;;5.60;3.60;;;;;;;0.62;100.00;99037.16;1712398;84;21063;-64
2021/12/19 00:34:54;;;;;;;5.60;3.80;;;;;;;0.65;100.00;99030.53;1712322;84;21604;-65
2021/12/19 00:37:21;;;;;;;5.12;3.70;;;;;;;0.64;100.00;99034.27;1712445;84;21074;-65
2021/12/19 00:39:48;;;;;;;5.35;3.77;;;;;;;0.61;100.00;99026.14;1712310;84;21434;-64
2021/12/19 00:42:33;;;;;;;;;;;;;;;0.63;100.00;99015.22;1714722;84;21632;-64
2021/12/19 00:45:02;;;;;;;5.15;3.25;;;;;;;0.67;100.00;99007.03;1712515;84;20137;-65
2021/12/19 00:47:29;;;;;;;4.90;3.60;;;;;;;0.66;100.00;99000.03;1712323;84;21195;-65
2021/12/19 00:49:55;;;;;;;5.00;3.98;;;;;;;0.68;100.00;98999.27;1712342;84;21097;-64
2021/12/19 00:52:22;;;;;;;4.62;3.70;;;;;;;0.61;100.00;98995.86;1712311;84;21121;-64
2021/12/19 00:57:30;;;;;;;5.08;3.70;;;;;;;0.65;100.00;98967.06;1882182;76;22902;-65
2021/12/19 00:59:57;;;;;;;4.80;3.50;;;;;;;0.66;100.00;98979.94;1856818;77;21063;-65
2021/12/19 01:02:23;;;;;;;4.55;3.30;;;;;;;0.68;100.00;98969.80;1856769;77;21065;-65
2021/12/19 01:04:49;;;;;;;5.40;4.12;;;;;;;0.68;100.00;98974.64;1856970;77;21594;-65
2021/12/19 01:07:16;;;;;;;4.65;3.60;;;;;;;0.62;100.00;98953.31;1856764;77;21082;-65
2021/12/19 01:09:43;;;;;;;4.65;3.62;;;;;;;0.59;100.00;98958.61;1856673;77;21451;-65
2021/12/19 01:12:10;;;;;;;5.15;4.03;;;;;;;0.63;100.00;98960.31;1856827;77;21039;-63
2021/12/19 01:14:37;;;;;;;5.75;3.95;;;;;;;0.66;100.00;98967.37;1856460;77;21047;-65
2021/12/19 01:17:05;;;;;;;;;;;;;;;0.67;100.00;98948.10;1859390;77;21008;-65
2021/12/19 01:19:33;;;;;;;7.08;4.15;;;;;;;0.63;100.00;98938.88;1856593;77;20458;-64
2021/12/19 01:21:59;;;;;;;5.87;3.90;;;;;;;0.54;100.00;98935.69;1856712;77;21039;-64
2021/12/19 01:24:25;;;;;;;6.17;3.37;;;;;;;0.58;100.00;98923.48;1857056;77;21012;-65
2021/12/19 01:26:52;;;;;;;5.17;3.83;;;;;;;0.62;100.00;98929.20;1856680;77;21091;-64
2021/12/19 01:29:18;;;;;;;5.95;4.17;;;;;;;0.63;100.00;98925.48;1856694;77;21060;-65
2021/12/19 01:31:44;;;;;;;5.42;3.67;;;;;;;0.59;100.00;98916.27;1856748;77;21514;-64
2021/12/19 01:34:12;;;;;;;5.35;3.95;;;;;;;0.58;100.00;98910.09;1856426;77;20988;-65
2021/12/19 01:36:41;;;;;;;6.95;4.50;;;;;;;0.59;100.00;98907.72;1856431;77;21056;-64
2021/12/19 01:39:08;;;;;;;5.70;4.00;;;;;;;0.61;100.00;98899.44;1856805;77;21001;-65
2021/12/19 01:41:34;;;;;;;5.42;3.77;;;;;;;0.62;100.00;98882.33;1856631;77;21061;-65
2021/12/19 01:44:01;;;;;;;7.90;3.77;;;;;;;0.58;100.00;98867.24;1856979;77;20983;-65
2021/12/19 01:46:27;;;;;;;;;;;;;;;0.56;100.00;98856.47;1859592;77;20992;-65
2021/12/19 01:48:53;;;;;;;4.92;3.27;;;;;;;0.57;100.00;98859.45;1856904;77;20115;-65
2021/12/19 01:51:20;;;;;;;4.90;3.10;;;;;;;0.53;100.00;98863.11;1856597;77;21586;-65
2021/12/19 01:53:46;;;;;;;5.33;3.58;;;;;;;0.54;100.00;98858.55;1856857;77;21031;-65
2021/12/19 01:56:12;;;;;;;5.12;4.00;;;;;;;0.53;100.00;98847.56;1856657;77;21086;-65
2021/12/19 01:58:39;;;;;;;5.30;4.37;;;;;;;0.48;100.00;98842.87;1856836;77;20996;-65
2021/12/19 02:01:05;;;;;;;6.47;3.98;;;;;;;0.48;100.00;98832.17;1856591;77;21059;-65
2021/12/19 02:03:32;;;;;;;5.75;4.30;;;;;;;0.53;100.00;98832.31;1856626;77;21031;-64
2021/12/19 02:05:59;;;;;;;5.92;4.10;;;;;;;0.55;100.00;98816.81;1856814;77;21032;-65
2021/12/19 02:08:26;;;;;;;4.70;3.42;;;;;;;0.57;100.00;98817.94;1855988;77;21054;-65
2021/12/19 02:10:53;;;;;;;5.58;4.08;;;;;;;0.56;100.00;98810.95;1855915;77;21060;-64
2021/12/19 02:13:21;;;;;;;6.25;4.50;;;;;;;0.52;100.00;98805.23;1855911;77;21028;-64
2021/12/19 02:15:48;;;;;;;4.83;3.70;;;;;;;0.51;100.00;98799.57;1855766;77;21032;-64
2021/12/19 02:18:18;;;;;;;5.80;3.65;;;;;;;0.55;100.00;98794.57;1855771;77;21111;-66
2021/12/19 02:20:52;;;;;;;5.37;3.83;;;;;;;0.55;100.00;98782.00;1856081;77;21040;-65
2021/12/19 02:23:22;;;;;;;4.78;3.62;;;;;;;0.59;100.00;98777.82;1855827;76;21079;-65
2021/12/19 02:25:49;;;;;;;4.97;3.50;;;;;;;0.62;100.00;98772.52;1856167;77;21040;-64
2021/12/19 02:28:15;;;;;;;5.55;4.25;;;;;;;0.57;100.00;98778.56;1856034;77;21542;-65
2021/12/19 02:30:41;;;;;;;5.20;3.90;;;;;;;0.55;100.00;98770.47;1856569;77;20978;-65
2021/12/19 02:33:12;;;;;;;6.53;3.87;;;;;;;0.57;100.00;98774.55;1856107;77;21012;-65
2021/12/19 02:35:39;;;;;;;6.45;4.50;;;;;;;0.59;100.00;98772.47;1856211;77;21043;-64
2021/12/19 02:38:33;;;;;;;5.53;4.00;;;;;;;0.61;100.00;98769.02;1855934;77;21068;-65
2021/12/19 02:50:48;;;;;;;5.47;3.83;;;;;;;0.63;100.00;98724.61;1887053;76;23382;-65
2021/12/19 02:53:14;;;;;;;7.08;4.35;;;;;;;0.60;100.00;98727.23;1862155;77;21078;-65
2021/12/19 02:55:41;;;;;;;6.15;4.40;;;;;;;0.63;100.00;98724.61;1861737;77;21039;-66
2021/12/19 02:58:08;;;;;;;7.00;4.80;;;;;;;0.65;100.00;98713.95;1862073;77;21539;-64
2021/12/19 03:00:36;;;;;;;7.12;5.35;;;;;;;0.69;100.00;98719.66;1861808;77;21043;-65
2021/12/19 03:03:03;;;;;;;6.92;5.10;;;;;;;0.69;100.00;98716.98;1861882;77;21055;-64
2021/12/19 03:05:34;;;;;;;7.08;4.70;;;;;;;0.66;100.00;98702.20;1861943;77;21621;-65
2021/12/19 03:08:00;;;;;;;6.25;4.97;;;;;;;0.66;100.00;98706.21;1860406;77;21691;-65
2021/12/19 03:13:17;;;;;;;6.22;4.28;;;;;;;0.70;100.00;98682.45;1861960;77;21099;-65
2021/12/19 03:18:15;;;;;;;6.47;4.85;;;;;;;0.67;100.00;98665.00;1862034;77;21044;-65
2021/12/19 03:20:47;;;;;;;6.53;4.67;;;;;;;0.65;100.00;98667.08;1862418;77;21483;-64
2021/12/19 03:23:13;;;;;;;6.28;4.58;;;;;;;0.67;100.00;98666.34;1860051;77;21091;-65
2021/12/19 03:25:40;;;;;;;6.97;4.72;;;;;;;0.72;100.00;98660.25;1861836;77;21082;-65
2021/12/19 03:28:08;;;;;;;;;;;;;;;0.75;100.00;98651.74;1864848;77;21024;-65
2021/12/19 03:30:35;;;;;;;6.90;4.85;;;;;;;0.73;100.00;98643.95;1862120;77;20130;-65
2021/12/19 03:33:02;;;;;;;6.08;4.30;;;;;;;0.62;100.00;98628.71;1861970;77;21004;-66
2021/12/19 03:35:29;;;;;;;5.92;4.42;;;;;;;0.65;100.00;98635.45;1862359;77;21027;-65
2021/12/19 03:37:58;;;;;;;7.03;4.53;;;;;;;0.69;100.00;98625.39;1862238;77;21035;-65
2021/12/19 03:40:35;;;;;;;5.45;4.22;;;;;;;0.75;100.00;98616.92;1861804;77;21522;-65
2021/12/19 03:42:53;;;;;;;6.53;3.92;;;;;;;0.79;100.00;98618.08;1859758;77;21612;-65
2021/12/19 03:45:23;;;;;;;5.72;4.10;;;;;;;0.82;100.00;98604.20;1861797;77;21079;-65
2021/12/19 03:47:49;;;;;;;6.10;4.42;;;;;;;0.82;100.00;98604.20;1861799;77;21054;-65
2021/12/19 03:50:20;;;;;;;5.65;4.20;;;;;;;0.82;100.00;98597.52;1862029;77;21020;-64
2021/12/19 03:52:46;;;;;;;6.75;4.30;;;;;;;0.86;100.00;98579.92;1861833;77;21602;-65
2021/12/19 03:55:12;;;;;;;5.80;4.15;;;;;;;0.89;100.00;98572.73;1862170;77;21000;-65
2021/12/19 03:57:39;;;;;;;5.62;3.85;;;;;;;0.89;100.00;98580.25;1862006;77;21048;-64
2021/12/19 04:00:09;;;;;;;6.17;4.33;;;;;;;0.89;100.00;98576.23;1862161;77;21031;-65
2021/12/19 04:02:37;;;;;;;5.65;3.85;;;;;;;0.85;100.00;98575.63;1861488;77;21726;-65
2021/12/19 04:05:04;;;;;;;6.17;3.92;;;;;;;0.84;100.00;98567.30;1861645;77;21042;-65
2021/12/19 04:07:30;;;;;;;5.95;3.90;;;;;;;0.86;100.00;98563.32;1861360;77;21593;-65
2021/12/19 04:09:58;;;;;;;5.25;3.77;;;;;;;0.89;100.00;98562.02;1861222;77;21602;-65
2021/12/19 04:12:27;;;;;;;5.08;3.85;;;;;;;0.92;100.00;98557.00;1861310;77;21044;-65
2021/12/19 04:14:54;;;;;;;7.80;4.50;;;;;;;0.90;100.00;98539.55;1861417;77;21031;-65
2021/12/19 04:17:20;;;;;;;7.25;4.00;;;;;;;0.90;100.00;98534.19;1861320;77;21632;-64
2021/12/19 04:19:47;;;;;;;4.80;3.72;;;;;;;0.94;100.00;98532.14;1861328;77;21039;-65
2021/12/19 04:22:13;;;;;;;6.12;4.37;;;;;;;0.96;100.00;98527.86;1861751;77;21008;-65
2021/12/19 04:24:40;;;;;;;;;;;;;;;0.99;100.00;98514.02;1864099;77;21074;-65
2021/12/19 04:27:07;;;;;;;6.95;4.50;;;;;;;0.99;100.00;98528.20;1861189;77;20087;-65
2021/12/19 04:29:33;;;;;;;5.33;4.08;;;;;;;0.89;100.00;98517.81;1861522;77;21000;-64
2021/12/19 04:35:16;;;;;;;7.00;4.53;;;;;;;0.96;100.00;98507.77;1887076;76;22733;-64
2021/12/19 04:41:41;;;;;;;5.80;4.03;;;;;;;0.94;100.00;98495.97;1862035;77;21467;-65
2021/12/19 04:51:41;;;;;;;6.35;4.05;;;;;;;0.92;100.00;98474.49;1862314;77;20956;-64
2021/12/19 04:54:13;;;;;;;5.67;4.05;;;;;;;0.94;100.00;98464.33;1857106;77;21076;-64
2021/12/19 05:14:36;;;;;;;4.55;3.10;;;;;;;1.06;100.00;98426.77;1861848;77;21063;-63
2021/12/19 05:17:08;;;;;;;5.20;3.30;;;;;;;1.06;100.00;98416.86;1861860;77;21059;-65
2021/12/19 05:19:42;;;;;;;5.15;3.60;;;;;;;1.09;100.00;98408.33;1860399;77;21634;-64
2021/12/19 05:22:02;;;;;;;5.03;3.47;;;;;;;1.13;100.00;98393.39;1857548;77;21400;-65
2021/12/19 05:24:47;;;;;;;5.60;3.90;;;;;;;1.13;100.00;98392.05;1861648;77;21043;-64
2021/12/19 05:27:00;;;;;;;6.90;4.37;;;;;;;1.14;100.00;98390.16;1857466;77;21037;-64
2021/12/19 05:29:27;;;;;;;6.80;4.00;;;;;;;1.12;100.00;98390.41;1862176;77;21046;-64
2021/12/19 05:31:53;;;;;;;6.33;4.08;;;;;;;1.13;100.00;98384.01;1862304;77;21606;-65
2021/12/19 05:34:20;;;;;;;6.50;4.08;;;;;;;1.18;100.00;98373.88;1862106;77;21012;-64
2021/12/19 05:45:19;;;;;;;8.28;5.05;;;;;;;1.15;100.00;98364.98;1861669;77;21047;-64
2021/12/19 05:55:14;;;;;;;8.05;4.75;;;;;;;1.29;100.00;98322.05;1801641;79;22947;-64
2021/12/19 05:57:40;;;;;;;6.35;4.50;;;;;;;1.19;100.00;98317.35;1755226;80;21054;-64
2021/12/19 06:00:12;;;;;;;6.10;4.28;;;;;;;1.21;100.00;98307.19;1752949;81;21046;-65
2021/12/19 06:02:41;;;;;;;7.65;4.97;;;;;;;1.24;100.00;98295.97;1752906;82;21059;-65
2021/12/19 06:05:08;;;;;;;7.03;4.65;;;;;;;1.29;100.00;98288.53;1752872;82;21577;-64
2021/12/19 06:07:35;;;;;;;7.85;4.60;;;;;;;1.33;100.00;98282.44;1752939;81;21039;-64
2021/12/19 06:10:04;;;;;;;6.80;5.10;;;;;;;1.32;100.00;98294.73;1752844;81;21581;-65
2021/12/19 06:12:32;;;;;;;8.98;5.70;;;;;;;1.31;100.00;98273.03;1753022;82;21598;-64
2021/12/19 06:14:59;;;;;;;;;;;;;;;1.37;100.00;98263.46;1755573;82;21019;-66
2021/12/19 06:17:26;;;;;;;7.45;5.10;;;;;;;1.41;100.00;98255.73;1753085;81;20110;-64
2021/12/19 06:19:54;;;;;;;8.40;5.40;;;;;;;1.41;100.00;98264.59;1753067;82;21003;-65
2021/12/19 06:22:20;;;;;;;8.60;5.75;;;;;;;1.43;100.00;98260.30;1753202;82;21011;-64
2021/12/19 06:24:47;;;;;;;;;;;;;;;1.43;100.00;98263.80;1755487;82;21472;-64
2021/12/19 06:27:13;;;;;;;8.35;5.60;;;;;;;1.44;100.00;98254.70;1753157;82;20113;-64
2021/12/19 06:29:40;;;;;;;;;;;;;;;1.44;100.00;98248.52;1755546;82;21063;-64
2021/12/19 06:32:06;;;;;;;7.72;5.37;;;;;;;1.48;100.00;98239.74;1753107;82;20154;-64
2021/12/19 06:34:33;;;;;;;9.53;5.80;;;;;;;1.47;100.00;98246.16;1752794;82;21114;-64
2021/12/19 06:36:59;;;;;;;9.50;6.62;;;;;;;1.49;100.00;98241.87;1753260;82;21035;-64
2021/12/19 06:39:25;;;;;;;10.28;6.40;;;;;;;1.46;100.00;98244.52;1753250;82;21086;-64
2021/12/19 06:44:04;;;;;;;8.68;6.00;;;;;;;1.58;100.00;98226.97;1801509;79;23401;-64
2021/12/19 06:46:31;;;;;;;8.63;6.00;;;;;;;1.55;100.00;98210.58;1759380;80;21102;-64
2021/12/19 06:48:57;;;;;;;8.83;5.28;;;;;;;1.58;100.00;98189.95;1752889;82;21600;-64
2021/12/19 06:51:24;;;;;;;;;;;;;;;1.61;100.00;98197.49;1755548;81;21075;-64
2021/12/19 06:53:50;;;;;;;8.90;5.70;;;;;;;1.64;100.00;98209.05;1752942;82;20409;-64
2021/12/19 06:56:17;;;;;;;8.03;5.83;;;;;;;1.60;100.00;98213.30;1753307;82;21039;-64
2021/12/19 06:58:43;;;;;;;8.65;5.95;;;;;;;1.55;100.00;98223.45;1752999;82;21421;-64
2021/12/19 07:01:09;;;;;;;;;;;;;;;1.56;100.00;98228.30;1755883;82;20971;-63
2021/12/19 07:03:36;;;;;;;9.93;6.42;;;;;;;1.60;100.00;98220.81;1752929;82;20118;-64
2021/12/19 07:06:02;;;;;;;10.23;6.47;;;;;;;1.61;100.00;98231.02;1753434;82;21010;-64
2021/12/19 07:08:29;;;;;;;9.98;7.28;;;;;;;1.66;100.00;98235.11;1753045;82;21066;-64
2021/12/19 07:10:56;;;;;;;9.73;6.20;;;;;;;1.65;100.00;98232.96;1753226;82;20987;-64
2021/12/19 07:13:22;;;;;;;11.35;7.35;;;;;;;1.66;100.00;98220.36;1753000;82;21066;-64
2021/12/19 07:15:51;;;;;;;11.18;7.20;;;;;;;1.70;100.00;98229.53;1753244;82;21039;-64
2021/12/19 07:18:18;;;;;;;11.63;7.08;;;;;;;1.73;100.00;98229.84;1752814;81;21112;-65
2021/12/19 07:20:44;;;;;;;10.98;7.60;;;;;;;1.73;100.00;98214.27;1753291;82;21507;-65
2021/12/19 07:23:14;;;;;;;12.70;7.12;;;;;;;1.71;100.00;98211.02;1752944;82;21055;-64
2021/12/19 07:25:41;;;;;;;12.37;7.97;;;;;;;1.70;100.00;98208.86;1752367;81;21536;-63
2021/12/19 07:28:07;;;;;;;;;;;;;;;1.75;100.00;98190.67;1755622;82;21047;-64
2021/12/19 07:30:36;;;;;;;13.22;7.60;;;;;;;1.79;100.00;98164.97;1753189;82;20433;-65
2021/12/19 07:33:04;;;;;;;12.00;7.83;;;;;;;1.78;100.00;98153.94;1752904;81;21098;-63
2021/12/19 07:35:33;;;;;;;13.45;8.73;;;;;;;1.81;100.00;98131.97;1753067;82;21573;-64
2021/12/19 07:37:59;;;;;;;14.45;9.20;;;;;;;1.82;100.00;98139.78;1752829;82;21434;-63
2021/12/19 07:40:28;;;;;;;13.72;8.78;;;;;;;1.80;100.00;98153.17;1753411;82;21019;-65
2021/12/19 07:42:58;;;;;;;15.55;9.18;;;;;;;1.84;100.00;98133.61;1747389;81;21118;-65
2021/12/19 07:45:22;;;;;;;13.30;8.43;;;;;;;1.87;100.00;98123.73;1739763;82;21064;-63
2021/12/19 07:47:48;;;;;;;15.32;9.63;;;;;;;1.90;100.00;98123.23;1739686;82;21558;-64
2021/12/19 07:50:15;;;;;;;16.75;10.43;;;;;;;1.90;100.00;98142.01;1739996;82;21024;-64
2021/12/19 07:52:41;;;;;;;17.00;10.60;;;;;;;1.87;100.00;98135.81;1739914;82;21055;-65
2021/12/19 07:55:08;;;;;;;17.85;10.60;;;;;;;1.90;100.00;98135.30;1739616;82;20992;-65
2021/12/19 07:57:35;;;;;;;15.45;10.72;;;;;;;1.96;100.00;98143.66;1739037;82;21605;-65
2021/12/19 08:00:03;;;;;;;16.87;10.95;;;;;;;1.98;100.00;98123.30;1739277;82;21074;-65
2021/12/19 08:02:31;;;;;;;15.48;10.30;;;;;;;2.03;100.00;98121.98;1737898;82;21068;-64
2021/12/19 08:04:58;;;;;;;18.67;11.78;;;;;;;2.01;100.00;98124.13;1739412;82;21004;-65
2021/12/19 08:07:24;;;;;;;16.30;10.70;;;;;;;2.04;100.00;98122.80;1739413;82;21036;-64
2021/12/19 08:12:37;;;;;;;18.80;11.93;;;;;;;2.15;100.00;98126.66;1739137;82;21684;-65
2021/12/19 08:15:05;;;;;;;21.60;12.25;;;;;;;2.15;100.00;98118.60;1739510;82;21044;-64
2021/12/19 08:17:32;;;;;;;23.70;12.98;;;;;;;2.16;100.00;98113.48;1739223;82;21067;-63
2021/12/19 08:19:59;;;;;;;21.75;13.62;;;;;;;2.21;100.00;98107.36;1739357;82;21025;-64
2021/12/19 08:22:27;;;;;;;21.25;13.22;;;;;;;2.26;100.00;98093.98;1739288;82;21091;-64
2021/12/19 08:24:53;;;;;;;20.88;13.00;;;;;;;2.29;100.00;98099.64;1739059;82;21502;-64
2021/12/19 08:27:20;;;;;;;22.95;12.60;;;;;;;2.29;100.00;98106.88;1739267;82;21094;-64
2021/12/19 08:29:47;;;;;;;21.23;12.63;;;;;;;2.35;100.00;98108.53;1739087;82;21067;-64
2021/12/19 08:32:13;;;;;;;19.62;11.93;;;;;;;2.38;100.00;98099.42;1739244;82;21063;-65
2021/12/19 08:34:40;;;;;;;19.70;12.45;;;;;;;2.42;100.00;98093.00;1739190;82;21023;-65
2021/12/19 08:37:07;;;;;;;20.55;12.73;;;;;;;2.42;100.00;98083.60;1739369;82;21043;-64
2021/12/19 08:39:34;;;;;;;20.65;12.80;;;;;;;2.41;100.00;98085.48;1739454;82;21016;-65
2021/12/19 08:42:01;;;;;;;20.40;12.50;;;;;;;2.44;100.00;98079.58;1739348;82;21728;-63
2021/12/19 08:44:27;;;;;;;19.10;11.88;;;;;;;2.47;100.00;98071.03;1752101;81;21038;-65
2021/12/19 08:46:53;;;;;;;;;;;;;;;2.46;100.00;98060.53;1755741;82;21804;-65
2021/12/19 08:49:20;;;;;;;17.17;10.40;;;;;;;2.43;100.00;98061.88;1753145;82;20118;-65
2021/12/19 08:51:47;;;;;;;16.02;9.93;;;;;;;2.39;100.00;98060.77;1753102;82;21550;-65
2021/12/19 08:54:13;;;;;;;14.73;8.98;;;;;;;2.39;100.00;98065.33;1753236;82;21074;-65
2021/12/19 08:56:40;;;;;;;14.50;8.55;;;;;;;2.38;100.00;98058.33;1753239;82;21062;-66
2021/12/19 08:59:07;;;;;;;13.90;7.92;;;;;;;2.33;100.00;98047.05;1753237;82;21518;-66
2021/12/19 09:01:34;;;;;;;12.88;7.53;;;;;;;2.20;100.00;98053.38;1753188;82;21118;-65
2021/12/19 09:04:01;;;;;;;12.80;7.60;;;;;;;2.11;100.00;98045.02;1753151;82;21027;-66
2021/12/19 09:06:27;;;;;;;11.63;7.10;;;;;;;2.06;100.00;98043.63;1753147;82;21063;-65
2021/12/19 09:08:53;;;;;;;12.75;7.47;;;;;;;2.02;100.00;98034.47;1753223;82;21007;-65
2021/12/19 09:11:21;;;;;;;11.48;6.55;;;;;;;1.90;100.00;98039.23;1753009;82;21621;-65
2021/12/19 09:13:47;;;;;;;11.65;6.92;;;;;;;1.83;100.00;98042.66;1753104;82;21062;-66
2021/12/19 09:16:14;;;;;;;;;;;;;;;1.76;100.00;98027.31;1755613;82;21533;-65
2021/12/19 09:18:42;;;;;;;11.63;6.42;;;;;;;1.68;100.00;98030.45;1753172;82;20147;-65
2021/12/19 09:21:08;;;;;;;;;;;;;;;1.50;100.00;98020.91;1756072;82;21530;-65
2021/12/19 09:23:35;;;;;;;10.72;6.15;;;;;;;1.43;100.00;98014.95;1753312;82;20111;-65
2021/12/19 09:26:01;;;;;;;;;;;;;;;1.37;100.00;98007.94;1755918;82;20983;-65
2021/12/19 09:28:28;;;;;;;10.48;5.80;;;;;;;1.38;100.00;98003.64;1753437;82;20417;-65
2021/12/19 09:30:54;;;;;;;10.60;6.55;;;;;;;1.38;100.00;97990.80;1753366;82;21019;-65
2021/12/19 09:33:22;;;;;;;11.55;7.00;;;;;;;1.43;100.00;97980.09;1752941;82;21078;-64
2021/12/19 09:35:49;;;;;;;9.90;5.90;;;;;;;1.42;100.00;97973.92;1753332;82;21038;-66
2021/12/19 09:38:15;;;;;;;12.03;5.90;;;;;;;1.48;100.00;97959.52;1753135;82;21086;-64
2021/12/19 09:40:43;;;;;;;8.75;5.28;;;;;;;1.57;100.00;97955.80;1753389;82;20999;-63
2021/12/19 09:43:41;;;;;;;8.40;4.55;;;;;;;1.67;100.00;97952.38;1752974;81;21078;-66
2021/12/19 09:45:40;;;;;;;6.70;4.08;;;;;;;1.77;100.00;97945.20;1749214;82;21007;-64
2021/12/19 09:48:06;;;;;;;6.08;3.75;;;;;;;1.87;100.00;97934.57;1753209;82;21134;-64
2021/12/19 09:50:33;;;;;;;7.33;4.28;;;;;;;1.99;100.00;97924.95;1753346;82;21027;-65
2021/12/19 09:52:59;;;;;;;7.85;4.97;;;;;;;2.04;100.00;97922.84;1753142;82;21643;-65
2021/12/19 09:55:25;;;;;;;;;;;;;;;2.09;100.00;97924.22;1755872;82;21408;-65
2021/12/19 09:57:53;;;;;;;7.03;4.03;;;;;;;2.19;100.00;97932.31;1753173;82;20119;-65
2021/12/19 10:00:20;;;;;;;8.85;4.95;;;;;;;2.23;100.00;97921.33;1753204;82;20987;-65
2021/12/19 10:02:47;;;;;;;8.83;4.78;;;;;;;2.29;100.00;97918.41;1753068;82;21054;-65
2021/12/19 10:05:25;;;;;;;9.20;5.42;;;;;;;2.33;100.00;97914.13;1753533;82;21011;-65
2021/12/19 10:08:03;;;;;;;8.88;4.75;;;;;;;2.43;100.00;97912.01;1751961;82;21161;-66
2021/12/19 10:10:53;;;;;;;8.05;4.67;;;;;;;2.49;100.00;97903.70;1753104;82;21498;-65
2021/12/19 10:13:16;;;;;;;7.10;4.28;;;;;;;2.60;100.00;97902.38;1752511;82;21019;-64
2021/12/19 10:15:44;;;;;;;6.78;4.60;;;;;;;2.61;100.00;97903.47;1752939;82;20983;-65
2021/12/19 10:18:15;;;;;;;5.90;3.87;;;;;;;2.68;100.00;97879.84;1753322;82;21070;-65
2021/12/19 10:20:51;;;;;;;10.03;5.17;;;;;;;2.78;100.00;97878.52;1752929;82;21054;-64
2021/12/19 10:23:27;;;;;;;8.35;4.70;;;;;;;2.85;100.00;97875.56;1753170;82;21082;-64
2021/12/19 10:26:07;;;;;;;10.00;5.30;;;;;;;2.85;100.00;97875.56;1753144;81;21062;-64
2021/12/19 10:28:55;;;;;;;6.62;4.25;;;;;;;2.91;100.00;97865.09;1753106;82;21568;-63
2021/12/19 10:31:25;;;;;;;7.53;4.75;;;;;;;2.95;100.00;97858.91;1753452;82;21067;-65
2021/12/19 10:33:52;;;;;;;7.10;4.00;;;;;;;2.99;100.00;97849.78;1753014;82;21015;-66
2021/12/19 10:36:18;;;;;;;6.87;3.98;;;;;;;2.98;100.00;97841.44;1753366;82;21111;-66
2021/12/19 10:38:51;;;;;;;7.62;4.50;;;;;;;3.02;100.00;97842.52;1753203;82;21042;-64
2021/12/19 10:41:32;;;;;;;8.20;4.95;;;;;;;3.10;100.00;97829.89;1753148;82;21563;-65
2021/12/19 10:44:01;;;;;;;7.60;4.40;;;;;;;3.10;100.00;97833.92;1752618;81;21062;-65
2021/12/19 10:46:40;;;;;;;6.85;3.80;;;;;;;3.11;100.00;97819.95;1752891;82;21046;-66
2021/12/19 10:49:22;;;;;;;7.47;3.77;;;;;;;3.16;100.00;97813.20;1752940;82;21003;-65
2021/12/19 10:51:50;;;;;;;6.42;4.30;;;;;;;3.20;100.00;97800.83;1752830;82;21925;-65
2021/12/19 10:54:17;;;;;;;7.37;4.40;;;;;;;3.23;100.00;97795.72;1753245;82;21023;-64
2021/12/19 10:56:43;;;;;;;6.67;4.00;;;;;;;3.20;100.00;97788.20;1753437;82;21574;-64
2021/12/19 10:59:14;;;;;;;8.30;4.40;;;;;;;3.20;100.00;97784.16;1753401;82;21061;-64
2021/12/19 11:01:45;;;;;;;7.95;4.33;;;;;;;3.26;100.00;97770.97;1753100;82;21628;-63
2021/12/19 11:04:17;;;;;;;5.90;3.30;;;;;;;3.30;100.00;97778.77;1753012;82;21086;-65
2021/12/19 11:06:53;;;;;;;5.90;3.83;;;;;;;3.33;100.00;97780.12;1753156;81;21107;-65
2021/12/19 11:09:31;;;;;;;6.42;3.67;;;;;;;3.33;100.00;97759.39;1753021;82;21046;-65
2021/12/19 11:12:07;;;;;;;6.10;3.67;;;;;;;3.38;100.00;97777.41;1753105;82;21051;-65
2021/12/19 11:14:43;;;;;;;7.83;3.70;;;;;;;3.42;100.00;97756.42;1753080;82;21079;-65
2021/12/19 11:17:21;;;;;;;6.90;3.60;;;;;;;3.38;100.00;97752.67;1753237;82;21031;-65
2021/12/19 11:19:50;;;;;;;6.10;3.75;;;;;;;3.43;100.00;97765.30;1752973;82;21058;-65
2021/12/19 11:22:25;;;;;;;5.83;3.52;;;;;;;3.46;100.00;97749.42;1752841;82;21186;-64
2021/12/19 11:24:56;;;;;;;5.50;3.37;;;;;;;3.49;100.00;97738.65;1753217;82;21074;-65
2021/12/19 11:27:23;;;;;;;4.78;2.85;;;;;;;3.46;100.00;97744.58;1753198;82;21047;-64
2021/12/19 11:29:53;;;;;;;4.95;2.85;;;;;;;3.50;100.00;97751.84;1753426;82;21538;-65
2021/12/19 11:32:32;;;;;;;5.70;3.30;;;;;;;3.54;100.00;97739.18;1753071;82;21052;-65
2021/12/19 11:35:07;;;;;;;5.80;2.80;;;;;;;3.53;100.00;97740.25;1750731;82;21529;-65
2021/12/19 11:37:44;;;;;;;4.58;2.62;;;;;;;3.49;100.00;97721.97;1753514;82;21031;-64
2021/12/19 11:40:16;;;;;;;;;;;;;;;3.53;100.00;97727.61;1752583;82;21022;-64
2021/12/19 11:42:43;;;;;;;4.90;2.90;;;;;;;3.50;100.00;97728.16;1752701;82;20094;-64
2021/12/19 11:45:41;;;;;;;4.92;2.60;;;;;;;3.45;100.00;97724.94;1753431;81;21019;-65
2021/12/19 11:48:17;;;;;;;6.10;3.35;;;;;;;3.49;100.00;97721.97;1752053;82;21059;-65
2021/12/19 11:51:00;;;;;;;4.70;3.05;;;;;;;3.46;100.00;97723.88;1749715;82;21011;-65
2021/12/19 11:53:39;;;;;;;5.60;2.80;;;;;;;3.46;100.00;97717.14;1750757;82;21125;-65
2021/12/19 11:56:19;;;;;;;5.17;2.80;;;;;;;3.50;100.00;97716.87;1753280;82;21007;-64
2021/12/19 11:58:51;;;;;;;5.22;2.40;;;;;;;3.50;100.00;97706.11;1753014;82;21074;-64
2021/12/19 12:01:29;;;;;;;6.65;3.30;;;;;;;3.51;100.00;97705.00;1753299;82;21065;-63
2021/12/19 12:04:00;;;;;;;4.62;2.10;;;;;;;3.57;100.00;97695.05;1753258;82;21043;-64
2021/12/19 12:06:32;;;;;;;4.67;2.27;;;;;;;3.60;100.00;97695.02;1753231;82;21105;-65
2021/12/19 12:09:27;;;;;;;5.72;2.98;;;;;;;3.56;100.00;97705.53;1753180;82;21529;-63
2021/12/19 12:12:12;;;;;;;4.92;2.45;;;;;;;3.59;100.00;97696.09;1753240;82;21054;-65
2021/12/19 12:14:51;;;;;;;6.33;2.60;;;;;;;3.58;100.00;97695.85;1753115;82;21633;-64
2021/12/19 12:17:22;;;;;;;5.35;2.65;;;;;;;3.54;100.00;97704.20;1753207;82;21067;-65
2021/12/19 12:19:55;;;;;;;6.65;2.45;;;;;;;3.56;100.00;97723.55;1753027;81;21114;-64
2021/12/19 12:22:32;;;;;;;2.98;1.65;;;;;;;3.55;100.00;97699.87;1753434;82;21630;-64
2021/12/19 12:25:09;;;;;;;2.77;1.32;;;;;;;3.54;100.00;97710.39;1752989;81;21585;-63
2021/12/19 12:27:46;;;;;;;3.62;1.70;;;;;;;3.56;100.00;97710.91;1753414;82;21046;-65
2021/12/19 12:30:16;;;;;;;3.58;1.60;;;;;;;3.58;100.00;97707.96;1753492;82;21002;-64
2021/12/19 12:32:43;;;;;;;3.05;1.22;;;;;;;3.54;100.00;97709.59;1753161;82;21030;-64
2021/12/19 12:35:11;;;;;;;3.35;1.70;;;;;;;3.51;100.00;97706.34;1753268;82;21549;-64
2021/12/19 12:37:40;;;;;;;3.12;1.60;;;;;;;3.53;100.00;97703.39;1753293;82;21078;-64
2021/12/19 12:40:28;;;;;;;2.87;1.60;;;;;;;3.52;100.00;97697.74;1753095;82;21082;-65
2021/12/19 12:43:09;;;;;;;2.83;1.50;;;;;;;3.48;100.00;97696.68;1752451;82;21145;-64
2021/12/19 12:46:09;;;;;;;2.90;1.45;;;;;;;3.43;100.00;97698.06;1753110;81;21038;-64
2021/12/19 12:48:58;;;;;;;4.00;1.85;;;;;;;3.43;100.00;97693.49;1753550;82;21023;-63
2021/12/19 12:51:39;;;;;;;4.10;1.57;;;;;;;3.35;100.00;97702.12;1753456;82;21036;-64
2021/12/19 12:54:16;;;;;;;2.45;1.20;;;;;;;3.32;100.00;97695.95;1753305;82;21569;-64
2021/12/19 12:56:47;;;;;;;2.92;1.55;;;;;;;3.34;100.00;97709.91;1753106;82;21055;-64
2021/12/19 12:59:16;;;;;;;3.22;1.40;;;;;;;3.33;100.00;97704.83;1753348;82;21035;-65
2021/12/19 13:01:48;;;;;;;3.17;1.47;;;;;;;3.29;100.00;97711.83;1753136;82;21043;-65
2021/12/19 13:04:23;;;;;;;5.00;1.98;;;;;;;3.29;100.00;97707.26;1753404;81;21064;-65
2021/12/19 13:07:10;;;;;;;3.52;1.60;;;;;;;3.31;100.00;97706.44;1753135;82;21098;-64